createdAt,value
2023-02-25T00:02:51.499Z,3.80
2023-02-25T00:06:57.001Z,3.80
2023-02-25T00:11:06.154Z,3.80
2023-02-25T00:15:13.818Z,3.80
2023-02-25T00:19:19.361Z,3.80
2023-02-25T00:23:26.213Z,3.70
2023-02-25T00:27:31.809Z,3.70
2023-02-25T00:31:37.426Z,3.70
2023-02-25T00:35:43.142Z,3.60
2023-02-25T00:39:48.723Z,3.60
2023-02-25T00:43:58.805Z,3.50
2023-02-25T00:48:04.387Z,3.60
2023-02-25T00:52:10.060Z,3.60
2023-02-25T00:56:17.826Z,3.60
2023-02-25T01:00:23.480Z,3.60
2023-02-25T01:04:28.982Z,3.60
2023-02-25T01:08:34.614Z,3.60
2023-02-25T01:12:40.188Z,3.70
2023-02-25T01:16:48.287Z,3.70
2023-02-25T01:20:53.746Z,3.60
2023-02-25T01:24:59.225Z,3.70
2023-02-25T01:29:10.884Z,3.70
2023-02-25T01:33:16.393Z,3.70
2023-02-25T01:37:21.922Z,3.70
2023-02-25T01:41:29.648Z,3.70
2023-02-25T01:45:39.277Z,3.70
2023-02-25T01:49:47.020Z,3.80
2023-02-25T01:53:54.869Z,3.70
2023-02-25T01:58:01.421Z,3.70
2023-02-25T02:02:10.150Z,3.70
2023-02-25T02:06:50.400Z,3.70
2023-02-25T02:10:57.600Z,3.70
2023-02-25T02:15:08.322Z,3.70
2023-02-25T02:19:41.378Z,3.60
2023-02-25T02:24:05.369Z,3.60
2023-02-25T02:28:29.044Z,3.60
2023-02-25T02:32:57.549Z,3.60
2023-02-25T02:37:13.111Z,3.60
2023-02-25T02:42:29.671Z,3.60
2023-02-25T02:46:42.964Z,3.70
2023-02-25T02:50:56.464Z,3.60
2023-02-25T02:55:28.366Z,3.60
2023-02-25T02:59:43.031Z,3.60
2023-02-25T03:04:15.925Z,3.60
2023-02-25T03:08:27.348Z,3.50
2023-02-25T03:12:33.773Z,3.50
2023-02-25T03:16:49.655Z,3.50
2023-02-25T03:20:58.730Z,3.60
2023-02-25T03:25:20.025Z,3.50
2023-02-25T03:29:28.497Z,3.50
2023-02-25T03:33:47.843Z,3.50
2023-02-25T03:38:03.430Z,3.50
2023-02-25T03:42:14.388Z,3.50
2023-02-25T03:46:21.610Z,3.50
2023-02-25T03:50:36.064Z,3.50
2023-02-25T03:54:41.596Z,3.50
2023-02-25T03:58:47.086Z,3.50
2023-02-25T04:02:53.259Z,3.50
2023-02-25T04:06:58.697Z,3.50
2023-02-25T04:11:04.604Z,3.50
2023-02-25T04:15:11.301Z,3.50
2023-02-25T04:19:16.867Z,3.40
2023-02-25T04:23:22.470Z,3.50
2023-02-25T04:27:27.976Z,3.40
2023-02-25T04:31:33.753Z,3.40
2023-02-25T04:35:39.735Z,3.40
2023-02-25T04:39:45.259Z,3.40
2023-02-25T04:43:51.133Z,3.40
2023-02-25T04:47:59.756Z,3.30
2023-02-25T04:52:05.232Z,3.30
2023-02-25T04:56:12.066Z,3.30
2023-02-25T05:00:24.134Z,3.30
2023-02-25T05:04:29.848Z,3.30
2023-02-25T05:08:37.202Z,3.20
2023-02-25T05:12:42.736Z,3.10
2023-02-25T05:16:48.378Z,3.00
2023-02-25T05:20:54.171Z,3.00
2023-02-25T05:24:59.703Z,2.90
2023-02-25T05:29:05.405Z,2.90
2023-02-25T05:33:10.921Z,2.80
2023-02-25T05:37:16.478Z,2.80
2023-02-25T05:41:22.435Z,2.70
2023-02-25T05:45:28.002Z,2.60
2023-02-25T05:49:34.045Z,2.60
2023-02-25T05:53:40.047Z,2.50
2023-02-25T05:57:45.516Z,2.50
2023-02-25T06:01:51.074Z,2.50
2023-02-25T06:05:56.651Z,2.50
2023-02-25T06:10:02.374Z,2.50
2023-02-25T06:14:08.082Z,2.50
2023-02-25T06:18:13.561Z,2.50
2023-02-25T06:22:24.370Z,2.50
2023-02-25T06:26:30.256Z,2.50
2023-02-25T06:30:35.837Z,2.50
2023-02-25T06:34:41.557Z,2.50
2023-02-25T06:38:47.409Z,2.40
2023-02-25T06:42:53.043Z,2.40
2023-02-25T06:46:58.727Z,2.50
2023-02-25T06:51:09.385Z,2.40
2023-02-25T06:55:15.102Z,2.50
2023-02-25T06:59:21.141Z,2.40
2023-02-25T07:03:27.263Z,2.40
2023-02-25T07:07:33.062Z,2.50
2023-02-25T07:11:38.730Z,2.50
2023-02-25T07:15:44.248Z,2.50
2023-02-25T07:19:49.768Z,2.50
2023-02-25T07:23:55.705Z,2.60
2023-02-25T07:28:01.394Z,2.60
2023-02-25T07:32:09.033Z,2.70
2023-02-25T07:36:16.020Z,2.60
2023-02-25T07:40:21.599Z,2.70
2023-02-25T07:44:27.102Z,2.70
2023-02-25T07:48:33.335Z,2.70
2023-02-25T07:52:39.341Z,2.70
2023-02-25T07:56:45.618Z,2.80
2023-02-25T08:00:51.956Z,2.80
2023-02-25T08:04:57.579Z,2.80
2023-02-25T08:09:05.824Z,2.80
2023-02-25T08:13:11.627Z,2.80
2023-02-25T08:17:18.260Z,2.80
2023-02-25T08:21:24.790Z,2.80
2023-02-25T08:25:30.945Z,2.80
2023-02-25T08:29:37.412Z,2.90
2023-02-25T08:33:49.787Z,2.90
2023-02-25T08:37:55.345Z,3.00
2023-02-25T08:42:00.818Z,2.90
2023-02-25T08:46:06.806Z,2.90
2023-02-25T08:50:13.029Z,3.00
2023-02-25T08:54:18.655Z,2.90
2023-02-25T08:58:24.106Z,2.70
2023-02-25T09:02:29.600Z,2.70
2023-02-25T09:06:35.175Z,2.70
2023-02-25T09:10:49.750Z,2.70
2023-02-25T09:14:55.970Z,2.80
2023-02-25T09:19:01.702Z,2.70
2023-02-25T09:23:07.264Z,2.70
2023-02-25T09:27:13.168Z,2.80
2023-02-25T09:31:18.950Z,2.80
2023-02-25T09:35:24.445Z,2.70
2023-02-25T09:39:30.196Z,2.70
2023-02-25T09:43:42.562Z,2.60
2023-02-25T09:47:58.601Z,2.60
2023-02-25T09:52:28.974Z,2.50
2023-02-25T09:56:35.929Z,2.60
2023-02-25T10:01:13.773Z,2.60
2023-02-25T10:05:24.189Z,2.60
2023-02-25T10:09:50.776Z,2.70
2023-02-25T10:14:16.696Z,2.80
2023-02-25T10:18:54.953Z,2.90
2023-02-25T10:23:15.410Z,3.00
2023-02-25T10:27:30.286Z,3.10
2023-02-25T10:31:45.745Z,3.10
2023-02-25T10:36:07.836Z,3.20
2023-02-25T10:40:24.513Z,3.20
2023-02-25T10:44:30.182Z,3.20
2023-02-25T10:48:36.839Z,3.20
2023-02-25T10:52:59.510Z,3.20
2023-02-25T10:57:15.267Z,3.20
2023-02-25T11:01:23.011Z,3.30
2023-02-25T11:05:44.881Z,3.30
2023-02-25T11:10:07.785Z,3.30
2023-02-25T11:14:18.792Z,3.40
2023-02-25T11:18:30.143Z,3.60
2023-02-25T11:22:43.103Z,3.80
2023-02-25T11:26:51.823Z,3.90
2023-02-25T11:31:17.887Z,4.00
2023-02-25T11:35:38.740Z,4.10
2023-02-25T11:39:55.547Z,4.10
2023-02-25T11:44:44.554Z,4.10
2023-02-25T11:49:10.969Z,4.10
2023-02-25T11:53:52.809Z,4.10
2023-02-25T11:58:04.312Z,4.10
2023-02-25T12:02:40.846Z,4.20
2023-02-25T12:07:29.806Z,4.30
2023-02-25T12:12:25.615Z,4.40
2023-02-25T12:16:55.731Z,4.50
2023-02-25T12:21:34.544Z,4.50
2023-02-25T12:26:44.805Z,4.50
2023-02-25T12:31:20.975Z,4.50
2023-02-25T12:35:52.701Z,4.50
2023-02-25T12:40:18.951Z,4.60
2023-02-25T12:44:52.151Z,4.70
2023-02-25T12:49:42.415Z,4.70
2023-02-25T12:54:34.305Z,4.70
2023-02-25T12:59:10.802Z,4.70
2023-02-25T13:03:33.099Z,4.70
2023-02-25T13:08:29.664Z,4.90
2023-02-25T13:13:18.659Z,4.90
2023-02-25T13:17:35.710Z,5.00
2023-02-25T13:22:12.096Z,5.00
2023-02-25T13:27:11.663Z,5.00
2023-02-25T13:31:58.791Z,5.00
2023-02-25T13:37:02.661Z,4.90
2023-02-25T13:41:41.997Z,4.90
2023-02-25T13:46:12.102Z,4.90
2023-02-25T13:51:06.389Z,5.00
2023-02-25T13:56:07.267Z,5.00
2023-02-25T14:00:39.398Z,5.00
2023-02-25T14:04:55.570Z,5.20
2023-02-25T14:09:36.634Z,5.10
2023-02-25T14:14:00.959Z,5.10
2023-02-25T14:18:28.147Z,5.10
2023-02-25T14:22:53.316Z,5.20
2023-02-25T14:27:25.145Z,5.50
2023-02-25T14:31:58.968Z,5.70
2023-02-25T14:36:36.862Z,5.90
2023-02-25T14:41:20.103Z,5.70
2023-02-25T14:45:34.968Z,5.50
2023-02-25T14:50:03.988Z,5.50
2023-02-25T14:55:06.524Z,5.60
2023-02-25T14:59:56.484Z,5.70
2023-02-25T15:04:35.496Z,5.80
2023-02-25T15:09:10.838Z,5.80
2023-02-25T15:13:49.835Z,5.80
2023-02-25T15:18:16.256Z,5.60
2023-02-25T15:22:27.332Z,5.40
2023-02-25T15:26:51.763Z,5.30
2023-02-25T15:31:00.746Z,5.20
2023-02-25T15:35:14.060Z,5.10
2023-02-25T15:39:41.745Z,5.00
2023-02-25T15:43:47.665Z,5.00
2023-02-25T15:48:08.412Z,5.10
2023-02-25T15:52:51.022Z,5.20
2023-02-25T15:57:19.892Z,5.20
2023-02-25T16:01:43.145Z,5.20
2023-02-25T16:05:49.510Z,5.10
2023-02-25T16:10:01.768Z,5.00
2023-02-25T16:14:31.103Z,5.00
2023-02-25T16:18:47.599Z,4.90
2023-02-25T16:23:00.565Z,4.80
2023-02-25T16:27:52.477Z,4.70
2023-02-25T16:32:07.412Z,4.60
2023-02-25T16:36:20.275Z,4.50
2023-02-25T16:40:35.636Z,4.40
2023-02-25T16:44:45.552Z,4.40
2023-02-25T16:48:57.852Z,4.30
2023-02-25T16:53:04.274Z,4.20
2023-02-25T16:57:24.705Z,4.20
2023-02-25T17:01:33.012Z,4.10
2023-02-25T17:05:38.938Z,4.10
2023-02-25T17:10:12.026Z,4.00
2023-02-25T17:14:17.546Z,3.90
2023-02-25T17:18:32.786Z,3.80
2023-02-25T17:22:39.869Z,3.70
2023-02-25T17:26:49.621Z,3.50
2023-02-25T17:31:09.845Z,3.50
2023-02-25T17:35:16.770Z,3.50
2023-02-25T17:39:23.049Z,3.50
2023-02-25T17:43:37.994Z,3.40
2023-02-25T17:47:44.321Z,3.40
2023-02-25T17:51:59.999Z,3.10
2023-02-25T17:56:25.017Z,3.00
2023-02-25T18:00:36.583Z,2.90
2023-02-25T18:04:42.624Z,2.80
2023-02-25T18:08:54.134Z,2.70
2023-02-25T18:13:05.054Z,2.60
2023-02-25T18:17:37.098Z,2.60
2023-02-25T18:21:43.097Z,2.60
2023-02-25T18:26:09.478Z,2.60
2023-02-25T18:30:21.866Z,2.70
2023-02-25T18:34:27.416Z,2.60
2023-02-25T18:38:33.679Z,2.60
2023-02-25T18:42:39.239Z,2.50
2023-02-25T18:46:44.841Z,2.50
2023-02-25T18:50:50.639Z,2.50
2023-02-25T18:54:56.195Z,2.50
2023-02-25T18:59:01.777Z,2.50
2023-02-25T19:03:09.055Z,2.40
2023-02-25T19:07:16.055Z,2.40
2023-02-25T19:11:27.323Z,2.30
2023-02-25T19:15:33.361Z,2.30
2023-02-25T19:19:38.889Z,2.30
2023-02-25T19:23:45.919Z,2.20
2023-02-25T19:27:53.155Z,2.20
2023-02-25T19:31:59.177Z,2.10
2023-02-25T19:36:05.714Z,2.00
2023-02-25T19:40:15.491Z,1.90
2023-02-25T19:44:21.175Z,1.80
2023-02-25T19:48:26.764Z,1.80
2023-02-25T19:52:33.456Z,1.70
2023-02-25T19:56:39.011Z,1.70
2023-02-25T20:00:46.410Z,1.70
2023-02-25T20:04:52.262Z,1.80
2023-02-25T20:09:05.413Z,1.70
2023-02-25T20:13:10.969Z,1.80
2023-02-25T20:17:16.576Z,1.70
2023-02-25T20:21:24.190Z,1.70
2023-02-25T20:25:29.892Z,1.80
2023-02-25T20:29:35.485Z,1.70
2023-02-25T20:33:41.829Z,1.70
2023-02-25T20:38:27.335Z,1.70
2023-02-25T20:42:33.092Z,1.70
2023-02-25T20:46:40.702Z,1.60
2023-02-25T20:50:46.630Z,1.60
2023-02-25T20:54:52.535Z,1.60
2023-02-25T20:58:57.920Z,1.60
2023-02-25T21:03:04.810Z,1.50
2023-02-25T21:07:10.761Z,1.50
2023-02-25T21:11:16.120Z,1.50
2023-02-25T21:15:21.554Z,1.50
2023-02-25T21:19:28.293Z,1.50
2023-02-25T21:23:34.788Z,1.50
2023-02-25T21:27:40.404Z,1.50
2023-02-25T21:31:46.069Z,1.60
2023-02-25T21:35:53.151Z,1.50
2023-02-25T21:39:58.940Z,1.60
2023-02-25T21:44:04.752Z,1.60
2023-02-25T21:48:10.240Z,1.60
2023-02-25T21:52:16.576Z,1.60
2023-02-25T21:56:22.760Z,1.60
2023-02-25T22:00:28.843Z,1.60
2023-02-25T22:04:34.520Z,1.60
2023-02-25T22:08:41.956Z,1.50
2023-02-25T22:12:47.864Z,1.50
2023-02-25T22:16:53.843Z,1.60
2023-02-25T22:21:21.401Z,1.50
2023-02-25T22:25:27.319Z,1.50
2023-02-25T22:29:33.146Z,1.50
2023-02-25T22:33:39.901Z,1.50
2023-02-25T22:37:45.494Z,1.50
2023-02-25T22:41:51.216Z,1.50
2023-02-25T22:46:08.937Z,1.50
2023-02-25T22:50:15.585Z,1.50
2023-02-25T22:54:21.330Z,1.50
2023-02-25T22:58:27.001Z,1.60
2023-02-25T23:02:32.554Z,1.60
2023-02-25T23:06:43.917Z,1.60
2023-02-25T23:10:50.434Z,1.60
2023-02-25T23:14:56.103Z,1.60
2023-02-25T23:19:04.971Z,1.60
2023-02-25T23:23:13.634Z,1.60
2023-02-25T23:27:19.562Z,1.60
2023-02-25T23:31:28.931Z,1.60
2023-02-25T23:35:35.288Z,1.60
2023-02-25T23:39:41.024Z,1.60
2023-02-25T23:43:47.201Z,1.60
2023-02-25T23:47:53.001Z,1.60
2023-02-25T23:51:58.802Z,1.60
2023-02-25T23:56:10.490Z,1.60
